International Virtual Aviation Organisation

Eastern Europe and Northern Asia MCD

 
UHPP 201000Z 11001MPS 9999 -SHRA FEW009 BKN030CB 02/02 Q1018 R34L/290250 NOSIG RMK QFE760/1013
QNH:(hPa/inHg/mmHg)1018 / 30.06 / 764
QFE:(hPa/inHg/mmHg)1013 / 29.92 / 760
Temperature2
Dew Point2
Visibility> 10000
WeatherLight Showers Rain
Cloud CoverFEW (900);
BKN (3000);
Transition Height2400 m./8100 ft.
Transition LevelFL90
SQUAWK